Ana Sayfa
METAR-TAF:

METAR-TAF

Havaalanları :

Air Force Base Waterkloof

Waterkloof, Güney Afrika

Enlem: 25-50S, Boylam: 028-13E, yükseklik: 1498 m

Güncel hava durumu gözlemi

Rapor saat 02:00 UTC de 59 dakika önce yapıldı.
Rüzgar güneydan 1 kt
Sıcaklık 3°C
Nem 65%
Basınç 1026 hPa

METAR: FAWK 070200Z AUTO 17001KT //// // ////// 03/M03 Q1026

Saat: 04:59 (02:59 UTC)

Tahmin

Rapor saat 09:00 UTC de 17 saat ve 59 dakika önce yapıldı.
Ayın 06'si saat 10 UTC'den ayın 06'si saat 18 UTC'ye kadar geçerli Tahmin
Rüzgar kuzey/kuzeydoğudan 7 kt
Görüş mesafesi 10 km veya daha fazla
1500 m altında bulut yok ve kümülonimbus yok
Dönüşüyor
ayın 06'si saat 14 UTC'den ayın 06'si saat 16 UTC'ye kadar
Rüzgar değişken yönden 3 kt

TAF: FAWK 060900Z 0610/0618 03007KT CAVOK TX24/0613Z TN11/0618Z BECMG 0614/0616 VRB03KT

4.000'den fazla havaalanı için hava durumu gözlemleri ve tahminleri (METAR ve TAF raporları).

Kullanılabilir istasyonlar harita üzerinde sarı ve kırmızı noktalarla gösterilir.

İstasyonun adını görmek için fareyi noktanın üzerinde gezdirin.

Sonrasında hava gözlem ve tahminlerini görmek için tıklayın.

Haritayı değiştirmek için: yaklaştırmak için siyah artı işaretli yeşil düğmeye ve uzaklaştırmak için de eksi işaretli düğmeye hızla tıklayın; bitişik haritalar için yeşil okları kullanın.


METAR-TAF: